San Jose De Chiquitos, Bolivia
Current Conditions -  °F | °C
As of 8:00 AM on Monday 24 Nov 2014 (Local Time) from SLRB Reporting Station
Scattered Clouds Scattered Clouds  
Wind Chill: 79°   Ceiling: Unl
Heat Index: 81°   Visibility: 6mi
Dew Point: 68°   Wind: 17mph
Humidity: 69%   Direction: 360°N
Pressure: 29.91"   Gusts: NA
Location:  17.84°S, 60.73°W
Report Text: SLRB 241200Z 36015KT 9999 SCT015 26/20 Q1013
Loading
Personal Weather Stations






























Interactive Weather Map New forecast layout! Learn more

10-Day Weather Forecast

Advertisements
Track Severe Weather on mobile